Bloomfield, KY

5:03 AM EDT on August 28, 2015 (GMT -0400)
Peterson Eli Brown | | Change Station
CLOSE
Current Station
Personal Weather Station
Location: Bloomfield, KY
Elevation: 771 ft
Nearby Weather Stations

Elev 771 ft 37.90 °N, 85.32 °W | Updated 17 minutes ago

Clear
Clear
57.3 °F
Feels Like 57.3 °F
N
1.0
Wind Variable Wind from East
Gusts 3.0 mph

Today
High -- | Low -- °F
--% Chance of Precip.
Yesterday
High -- | Low -- °F
Precip. -- in
7:07 AM 8:16 PM
Waxing Gibbous, 97% visible
Pressure 30.12 in
Visibility 10.0 miles
Clouds Clear
Dew Point 53 °F
Humidity 86%
Rainfall 0.00 in
Snow Depth Not available.
UV 0 out of 12
Pollen 9.80 out of 12
Air Quality Not available.
Flu Activity Not available.
METAR KFFT 280853Z AUTO 34003KT 10SM CLR 12/11 A3013 RMK AO2 SLP197 T01220106 56002
Pressure 30.12 in
Visibility 10.0 miles
Clouds Clear
Dew Point 53 °F
Humidity 86%
Rainfall 0.00 in
Snow Depth Not available.
UV 0 out of 12
Pollen 9.80 out of 12
Air Quality Not available.
Flu Activity Not available.
METAR KFFT 280853Z AUTO 34003KT 10SM CLR 12/11 A3013 RMK AO2 SLP197 T01220106 56002

10-Day Weather Forecast

×

Almanac

Astronomy

Aug. 28, 2015 Rise Set
Actual Time
Civil Twilight
Nautical Twilight
Astronomical Twilight
Moon
Length of Visible Light
Length of Day
Tomorrow will be .
, % of the Moon is Illuminated

Today's Extremes

State Highs State Lows

Community

WunderPhotos

Upload Photos

1,850,355 photos uploaded!

WunderBlogs® & News

Nearby

Air Quality

  Air Quality AQ Index Pollutant
Not available.

Snow Depth

Station Depth Elevation

Earthquake Activity

City Distance Mag. Time & Date
Minimum magnitude displayed is 2.5.

Coastal Water Temperatures

Place Temperature

Stations

Nearby Weather Stations

Station Location Temp. Windchill Dew Point Humidity Wind Precip. Elev Updated Type